sensor_id;sensor_type;location;lat;lon;timestamp;pressure;altitude;pressure_sealevel;temperature
73685;BMP280;61985;51.070;14.064;2022-12-08T00:01:45;98049.88;;;1.15
73685;BMP280;61985;51.070;14.064;2022-12-08T00:04:10;98042.69;;;1.16
73685;BMP280;61985;51.070;14.064;2022-12-08T00:06:38;98044.94;;;1.14
73685;BMP280;61985;51.070;14.064;2022-12-08T00:12:10;98050.28;;;1.17
73685;BMP280;61985;51.070;14.064;2022-12-08T00:14:43;98048.78;;;1.20
73685;BMP280;61985;51.070;14.064;2022-12-08T00:17:11;98043.47;;;1.20
73685;BMP280;61985;51.070;14.064;2022-12-08T00:19:37;98045.75;;;1.21
73685;BMP280;61985;51.070;14.064;2022-12-08T00:22:04;98042.34;;;1.21
73685;BMP280;61985;51.070;14.064;2022-12-08T00:24:31;98035.13;;;1.18
73685;BMP280;61985;51.070;14.064;2022-12-08T00:26:57;98037.78;;;1.18
73685;BMP280;61985;51.070;14.064;2022-12-08T00:29:22;98032.84;;;1.16
73685;BMP280;61985;51.070;14.064;2022-12-08T00:31:47;98032.06;;;1.16
73685;BMP280;61985;51.070;14.064;2022-12-08T00:34:14;98024.88;;;1.16
73685;BMP280;61985;51.070;14.064;2022-12-08T00:36:39;98016.13;;;1.12
73685;BMP280;61985;51.070;14.064;2022-12-08T00:39:05;98023.34;;;1.12
73685;BMP280;61985;51.070;14.064;2022-12-08T00:41:30;98022.94;;;1.10
73685;BMP280;61985;51.070;14.064;2022-12-08T00:44:16;98021.81;;;1.11
73685;BMP280;61985;51.070;14.064;2022-12-08T00:46:43;98028.22;;;1.10
73685;BMP280;61985;51.070;14.064;2022-12-08T00:49:09;98024.06;;;1.08
73685;BMP280;61985;51.070;14.064;2022-12-08T00:51:34;98022.94;;;1.10
73685;BMP280;61985;51.070;14.064;2022-12-08T00:54:00;98024.47;;;1.11
73685;BMP280;61985;51.070;14.064;2022-12-08T00:56:25;98017.63;;;1.10
73685;BMP280;61985;51.070;14.064;2022-12-08T00:58:51;98028.22;;;1.10
73685;BMP280;61985;51.070;14.064;2022-12-08T01:01:16;98021.41;;;1.08
73685;BMP280;61985;51.070;14.064;2022-12-08T01:03:42;98025.56;;;1.10
73685;BMP280;61985;51.070;14.064;2022-12-08T01:06:08;98029.75;;;1.11
73685;BMP280;61985;51.070;14.064;2022-12-08T01:08:37;98028.28;;;1.13
73685;BMP280;61985;51.070;14.064;2022-12-08T01:11:09;98031.28;;;1.12
73685;BMP280;61985;51.070;14.064;2022-12-08T01:13:35;98029.41;;;1.12
73685;BMP280;61985;51.070;14.064;2022-12-08T01:16:01;98022.94;;;1.10
73685;BMP280;61985;51.070;14.064;2022-12-08T01:18:27;98029.38;;;1.08
73685;BMP280;61985;51.070;14.064;2022-12-08T01:20:53;98021.41;;;1.08
73685;BMP280;61985;51.070;14.064;2022-12-08T01:23:18;98025.56;;;1.10
73685;BMP280;61985;51.070;14.064;2022-12-08T01:25:44;98022.91;;;1.06
73685;BMP280;61985;51.070;14.064;2022-12-08T01:28:09;98022.91;;;1.06
73685;BMP280;61985;51.070;14.064;2022-12-08T01:30:37;98021.38;;;1.05
73685;BMP280;61985;51.070;14.064;2022-12-08T01:33:02;98016.84;;;1.05
73685;BMP280;61985;51.070;14.064;2022-12-08T01:35:28;98016.47;;;1.07
73685;BMP280;61985;51.070;14.064;2022-12-08T01:37:53;98020.63;;;1.08
73685;BMP280;61985;51.070;14.064;2022-12-08T01:40:18;98022.53;;;1.07
73685;BMP280;61985;51.070;14.064;2022-12-08T01:42:44;98021.41;;;1.08
73685;BMP280;61985;51.070;14.064;2022-12-08T01:45:14;98021.41;;;1.08
73685;BMP280;61985;51.070;14.064;2022-12-08T01:47:47;98015.34;;;1.08
73685;BMP280;61985;51.070;14.064;2022-12-08T01:50:15;98001.69;;;1.10
73685;BMP280;61985;51.070;14.064;2022-12-08T01:52:46;97996.38;;;1.10
73685;BMP280;61985;51.070;14.064;2022-12-08T01:55:22;97999.47;;;1.12
73685;BMP280;61985;51.070;14.064;2022-12-08T01:57:52;97996.03;;;1.11
73685;BMP280;61985;51.070;14.064;2022-12-08T02:00:20;97993.38;;;1.11
73685;BMP280;61985;51.070;14.064;2022-12-08T02:03:06;97992.22;;;1.08
73685;BMP280;61985;51.070;14.064;2022-12-08T02:05:35;97986.53;;;1.06
73685;BMP280;61985;51.070;14.064;2022-12-08T02:08:03;97981.97;;;1.03
73685;BMP280;61985;51.070;14.064;2022-12-08T02:10:33;97980.03;;;1.00
73685;BMP280;61985;51.070;14.064;2022-12-08T02:12:59;97989.53;;;0.98
73685;BMP280;61985;51.070;14.064;2022-12-08T02:15:59;97988.75;;;0.97
73685;BMP280;61985;51.070;14.064;2022-12-08T02:27:12;97982.66;;;0.93
73685;BMP280;61985;51.070;14.064;2022-12-08T02:38:35;97975.00;;;0.81
73685;BMP280;61985;51.070;14.064;2022-12-08T02:43:43;97974.22;;;0.77
73685;BMP280;61985;51.070;14.064;2022-12-08T02:46:16;97971.19;;;0.75
73685;BMP280;61985;51.070;14.064;2022-12-08T02:48:43;97975.69;;;0.74
73685;BMP280;61985;51.070;14.064;2022-12-08T02:51:09;97963.97;;;0.71
73685;BMP280;61985;51.070;14.064;2022-12-08T02:53:35;97966.59;;;0.71
73685;BMP280;61985;51.070;14.064;2022-12-08T02:56:11;97968.13;;;0.72
73685;BMP280;61985;51.070;14.064;2022-12-08T03:01:17;97968.09;;;0.69
73685;BMP280;61985;51.070;14.064;2022-12-08T03:07:06;97956.75;;;0.68
73685;BMP280;61985;51.070;14.064;2022-12-08T03:09:38;97949.16;;;0.70
73685;BMP280;61985;51.070;14.064;2022-12-08T03:14:47;97948.44;;;0.74
73685;BMP280;61985;51.070;14.064;2022-12-08T03:17:14;97940.50;;;0.77
73685;BMP280;61985;51.070;14.064;2022-12-08T03:19:42;97946.19;;;0.79
73685;BMP280;61985;51.070;14.064;2022-12-08T03:22:10;97943.94;;;0.81
73685;BMP280;61985;51.070;14.064;2022-12-08T03:24:38;97944.72;;;0.85
73685;BMP280;61985;51.070;14.064;2022-12-08T03:27:15;97942.44;;;0.84
73685;BMP280;61985;51.070;14.064;2022-12-08T03:29:44;97948.13;;;0.86
73685;BMP280;61985;51.070;14.064;2022-12-08T03:32:17;97937.53;;;0.86
73685;BMP280;61985;51.070;14.064;2022-12-08T03:34:46;97941.72;;;0.87
73685;BMP280;61985;51.070;14.064;2022-12-08T03:37:12;97933.75;;;0.87
73685;BMP280;61985;51.070;14.064;2022-12-08T03:39:38;97930.72;;;0.88
73685;BMP280;61985;51.070;14.064;2022-12-08T03:42:03;97933.38;;;0.92
73685;BMP280;61985;51.070;14.064;2022-12-08T03:44:29;97929.97;;;0.92
73685;BMP280;61985;51.070;14.064;2022-12-08T03:46:54;97928.84;;;0.93
73685;BMP280;61985;51.070;14.064;2022-12-08T03:49:19;97921.66;;;0.93
73685;BMP280;61985;51.070;14.064;2022-12-08T03:51:45;97925.81;;;0.94
73685;BMP280;61985;51.070;14.064;2022-12-08T03:54:10;97917.13;;;0.97
73685;BMP280;61985;51.070;14.064;2022-12-08T03:56:37;97926.97;;;0.97
73685;BMP280;61985;51.070;14.064;2022-12-08T03:59:04;97912.59;;;0.98
73685;BMP280;61985;51.070;14.064;2022-12-08T04:01:29;97909.53;;;0.96
73685;BMP280;61985;51.070;14.064;2022-12-08T04:03:55;97906.50;;;0.97
73685;BMP280;61985;51.070;14.064;2022-12-08T04:06:22;97904.63;;;1.01
73685;BMP280;61985;51.070;14.064;2022-12-08T04:08:48;97903.88;;;1.01
73685;BMP280;61985;51.070;14.064;2022-12-08T04:11:14;97899.38;;;1.08
73685;BMP280;61985;51.070;14.064;2022-12-08T04:13:40;97892.53;;;1.04
73685;BMP280;61985;51.070;14.064;2022-12-08T04:16:06;97889.47;;;1.02
73685;BMP280;61985;51.070;14.064;2022-12-08T04:18:33;97889.84;;;1.00
73685;BMP280;61985;51.070;14.064;2022-12-08T04:20:58;97896.69;;;1.01
73685;BMP280;61985;51.070;14.064;2022-12-08T04:23:24;97903.16;;;1.04
73685;BMP280;61985;51.070;14.064;2022-12-08T04:25:52;97895.94;;;1.04
73685;BMP280;61985;51.070;14.064;2022-12-08T04:28:18;97889.50;;;1.05
73685;BMP280;61985;51.070;14.064;2022-12-08T04:30:44;97893.28;;;1.04
73685;BMP280;61985;51.070;14.064;2022-12-08T04:33:11;97889.50;;;1.05
73685;BMP280;61985;51.070;14.064;2022-12-08T04:35:37;97893.66;;;1.06
73685;BMP280;61985;51.070;14.064;2022-12-08T04:38:02;97895.19;;;1.11
73685;BMP280;61985;51.070;14.064;2022-12-08T04:40:27;97888.78;;;1.16
73685;BMP280;61985;51.070;14.064;2022-12-08T04:42:53;97894.13;;;1.23
73685;BMP280;61985;51.070;14.064;2022-12-08T04:45:18;97895.28;;;1.25
73685;BMP280;61985;51.070;14.064;2022-12-08T04:47:44;97891.47;;;1.26
73685;BMP280;61985;51.070;14.064;2022-12-08T04:50:09;97891.50;;;1.30
73685;BMP280;61985;51.070;14.064;2022-12-08T04:52:35;97889.59;;;1.34
73685;BMP280;61985;51.070;14.064;2022-12-08T04:55:01;97896.41;;;1.39
73685;BMP280;61985;51.070;14.064;2022-12-08T04:57:26;97896.78;;;1.37
73685;BMP280;61985;51.070;14.064;2022-12-08T04:59:52;97883.53;;;1.41
73685;BMP280;61985;51.070;14.064;2022-12-08T05:02:17;97889.59;;;1.41
73685;BMP280;61985;51.070;14.064;2022-12-08T05:04:42;97888.06;;;1.40
73685;BMP280;61985;51.070;14.064;2022-12-08T05:07:08;97892.22;;;1.38
73685;BMP280;61985;51.070;14.064;2022-12-08T05:09:33;97887.28;;;1.36
73685;BMP280;61985;51.070;14.064;2022-12-08T05:11:58;97884.28;;;1.38
73685;BMP280;61985;51.070;14.064;2022-12-08T05:14:24;97877.09;;;1.35
73685;BMP280;61985;51.070;14.064;2022-12-08T05:16:49;97887.28;;;1.36
73685;BMP280;61985;51.070;14.064;2022-12-08T05:19:15;97884.28;;;1.38
73685;BMP280;61985;51.070;14.064;2022-12-08T05:21:40;97877.88;;;1.35
73685;BMP280;61985;51.070;14.064;2022-12-08T05:24:06;97884.66;;;1.36
73685;BMP280;61985;51.070;14.064;2022-12-08T05:26:31;97874.81;;;1.33
73685;BMP280;61985;51.070;14.064;2022-12-08T05:28:57;97879.00;;;1.34
73685;BMP280;61985;51.070;14.064;2022-12-08T05:31:22;97872.16;;;1.33
73685;BMP280;61985;51.070;14.064;2022-12-08T05:33:48;97877.47;;;1.37
73685;BMP280;61985;51.070;14.064;2022-12-08T05:36:15;97866.84;;;1.33
73685;BMP280;61985;51.070;14.064;2022-12-08T05:38:41;97873.31;;;1.32
73685;BMP280;61985;51.070;14.064;2022-12-08T05:41:07;97869.91;;;1.32
73685;BMP280;61985;51.070;14.064;2022-12-08T05:43:33;97871.03;;;1.31
73685;BMP280;61985;51.070;14.064;2022-12-08T05:45:59;97876.72;;;1.29
73685;BMP280;61985;51.070;14.064;2022-12-08T05:48:24;97878.97;;;1.27
73685;BMP280;61985;51.070;14.064;2022-12-08T05:50:50;97866.84;;;1.26
73685;BMP280;61985;51.070;14.064;2022-12-08T05:53:17;97869.88;;;1.24
73685;BMP280;61985;51.070;14.064;2022-12-08T05:55:44;97870.25;;;1.23
73685;BMP280;61985;51.070;14.064;2022-12-08T05:58:12;97866.44;;;1.20
73685;BMP280;61985;51.070;14.064;2022-12-08T06:00:39;97863.41;;;1.18
73685;BMP280;61985;51.070;14.064;2022-12-08T06:03:04;97862.25;;;1.16
73685;BMP280;61985;51.070;14.064;2022-12-08T06:05:32;97858.09;;;1.15
73685;BMP280;61985;51.070;14.064;2022-12-08T06:07:57;97867.53;;;1.12
73685;BMP280;61985;51.070;14.064;2022-12-08T06:10:22;97864.50;;;1.10
73685;BMP280;61985;51.070;14.064;2022-12-08T06:12:48;97865.25;;;1.07
73685;BMP280;61985;51.070;14.064;2022-12-08T06:15:13;97864.47;;;1.06
73685;BMP280;61985;51.070;14.064;2022-12-08T06:17:38;97865.59;;;1.02
73685;BMP280;61985;51.070;14.064;2022-12-08T06:20:04;97873.59;;;1.05
73685;BMP280;61985;51.070;14.064;2022-12-08T06:22:30;97872.06;;;1.04
73685;BMP280;61985;51.070;14.064;2022-12-08T06:24:55;97874.34;;;1.06
73685;BMP280;61985;51.070;14.064;2022-12-08T06:27:21;97870.53;;;1.03
73685;BMP280;61985;51.070;14.064;2022-12-08T06:29:46;97874.75;;;1.12
73685;BMP280;61985;51.070;14.064;2022-12-08T06:32:11;97875.88;;;1.14
73685;BMP280;61985;51.070;14.064;2022-12-08T06:34:37;97880.44;;;1.14
73685;BMP280;61985;51.070;14.064;2022-12-08T06:37:02;97880.06;;;1.15
73685;BMP280;61985;51.070;14.064;2022-12-08T06:39:28;97877.78;;;1.14
73685;BMP280;61985;51.070;14.064;2022-12-08T06:41:53;97886.50;;;1.14
73685;BMP280;61985;51.070;14.064;2022-12-08T06:44:37;97875.88;;;1.11
73685;BMP280;61985;51.070;14.064;2022-12-08T06:47:03;97882.31;;;1.10
73685;BMP280;61985;51.070;14.064;2022-12-08T06:49:29;97877.38;;;1.08
73685;BMP280;61985;51.070;14.064;2022-12-08T06:51:54;97882.69;;;1.08
73685;BMP280;61985;51.070;14.064;2022-12-08T06:54:19;97878.53;;;1.07
73685;BMP280;61985;51.070;14.064;2022-12-08T06:56:44;97889.16;;;1.11
73685;BMP280;61985;51.070;14.064;2022-12-08T06:59:10;97891.03;;;1.10
73685;BMP280;61985;51.070;14.064;2022-12-08T07:01:35;97888.41;;;1.14
73685;BMP280;61985;51.070;14.064;2022-12-08T07:04:00;97891.44;;;1.16
73685;BMP280;61985;51.070;14.064;2022-12-08T07:06:26;97887.28;;;1.15
73685;BMP280;61985;51.070;14.064;2022-12-08T07:08:51;97887.25;;;1.11
73685;BMP280;61985;51.070;14.064;2022-12-08T07:11:17;97887.25;;;1.11
73685;BMP280;61985;51.070;14.064;2022-12-08T07:13:42;97891.78;;;1.11
73685;BMP280;61985;51.070;14.064;2022-12-08T07:16:09;97877.78;;;1.10
73685;BMP280;61985;51.070;14.064;2022-12-08T07:18:35;97891.78;;;1.11
73685;BMP280;61985;51.070;14.064;2022-12-08T07:21:06;97887.25;;;1.11
73685;BMP280;61985;51.070;14.064;2022-12-08T07:23:32;97886.50;;;1.11
73685;BMP280;61985;51.070;14.064;2022-12-08T07:26:02;97894.47;;;1.14
73685;BMP280;61985;51.070;14.064;2022-12-08T07:28:35;97893.34;;;1.15
73685;BMP280;61985;51.070;14.064;2022-12-08T07:31:01;97894.09;;;1.16
73685;BMP280;61985;51.070;14.064;2022-12-08T07:33:27;97898.25;;;1.17
73685;BMP280;61985;51.070;14.064;2022-12-08T07:35:59;97895.63;;;1.17
73685;BMP280;61985;51.070;14.064;2022-12-08T07:38:25;97897.88;;;1.15
73685;BMP280;61985;51.070;14.064;2022-12-08T07:40:51;97885.00;;;1.17
73685;BMP280;61985;51.070;14.064;2022-12-08T07:43:17;97897.13;;;1.18
73685;BMP280;61985;51.070;14.064;2022-12-08T07:45:43;97881.97;;;1.15
73685;BMP280;61985;51.070;14.064;2022-12-08T07:48:08;97886.53;;;1.18
73685;BMP280;61985;51.070;14.064;2022-12-08T07:50:34;97887.28;;;1.22
73685;BMP280;61985;51.070;14.064;2022-12-08T07:52:59;97891.09;;;1.21
73685;BMP280;61985;51.070;14.064;2022-12-08T07:55:25;97894.13;;;1.23
73685;BMP280;61985;51.070;14.064;2022-12-08T07:57:50;97898.69;;;1.26
73685;BMP280;61985;51.070;14.064;2022-12-08T08:00:17;97900.97;;;1.31
73685;BMP280;61985;51.070;14.064;2022-12-08T08:02:43;97889.22;;;1.32
73685;BMP280;61985;51.070;14.064;2022-12-08T08:05:09;97884.28;;;1.34
73685;BMP280;61985;51.070;14.064;2022-12-08T08:07:36;97891.13;;;1.35
73685;BMP280;61985;51.070;14.064;2022-12-08T08:10:02;97890.34;;;1.38
73685;BMP280;61985;51.070;14.064;2022-12-08T08:12:27;97898.69;;;1.40
73685;BMP280;61985;51.070;14.064;2022-12-08T08:14:53;97899.84;;;1.47
73685;BMP280;61985;51.070;14.064;2022-12-08T08:17:18;97899.47;;;1.52
73685;BMP280;61985;51.070;14.064;2022-12-08T08:19:44;97894.94;;;1.56
73685;BMP280;61985;51.070;14.064;2022-12-08T08:22:10;97905.19;;;1.61
73685;BMP280;61985;51.070;14.064;2022-12-08T08:24:36;97896.88;;;1.66
73685;BMP280;61985;51.070;14.064;2022-12-08T08:27:01;97899.16;;;1.71
73685;BMP280;61985;51.070;14.064;2022-12-08T08:29:26;97902.56;;;1.68
73685;BMP280;61985;51.070;14.064;2022-12-08T08:31:52;97898.00;;;1.65
73685;BMP280;61985;51.070;14.064;2022-12-08T08:34:17;97901.41;;;1.62
73685;BMP280;61985;51.070;14.064;2022-12-08T08:36:43;97900.25;;;1.59
73685;BMP280;61985;51.070;14.064;2022-12-08T08:39:08;97897.22;;;1.54
73685;BMP280;61985;51.070;14.064;2022-12-08T08:41:33;97905.16;;;1.50
73685;BMP280;61985;51.070;14.064;2022-12-08T08:43:59;97901.72;;;1.42
73685;BMP280;61985;51.070;14.064;2022-12-08T08:46:25;97905.13;;;1.39
73685;BMP280;61985;51.070;14.064;2022-12-08T08:48:50;97903.22;;;1.36
73685;BMP280;61985;51.070;14.064;2022-12-08T08:51:16;97899.47;;;1.30
73685;BMP280;61985;51.070;14.064;2022-12-08T08:53:41;97885.03;;;1.24
73685;BMP280;61985;51.070;14.064;2022-12-08T08:56:11;97898.31;;;1.24
73685;BMP280;61985;51.070;14.064;2022-12-08T08:58:37;97890.31;;;1.20
73685;BMP280;61985;51.070;14.064;2022-12-08T09:01:03;97885.38;;;1.19
73685;BMP280;61985;51.070;14.064;2022-12-08T09:03:28;97892.22;;;1.16
73685;BMP280;61985;51.070;14.064;2022-12-08T09:05:54;97892.59;;;1.18
73685;BMP280;61985;51.070;14.064;2022-12-08T09:08:21;97890.34;;;1.24
73685;BMP280;61985;51.070;14.064;2022-12-08T09:10:46;97896.41;;;1.24
73685;BMP280;61985;51.070;14.064;2022-12-08T09:13:11;97895.66;;;1.28
73685;BMP280;61985;51.070;14.064;2022-12-08T09:15:37;97897.94;;;1.33
73685;BMP280;61985;51.070;14.064;2022-12-08T09:18:02;97896.41;;;1.42
73685;BMP280;61985;51.070;14.064;2022-12-08T09:20:31;97909.34;;;1.51
73685;BMP280;61985;51.070;14.064;2022-12-08T09:22:56;97910.13;;;1.62
73685;BMP280;61985;51.070;14.064;2022-12-08T09:25:21;97907.13;;;1.71
73685;BMP280;61985;51.070;14.064;2022-12-08T09:27:47;97907.91;;;1.83
73685;BMP280;61985;51.070;14.064;2022-12-08T09:30:12;97903.34;;;1.90
73685;BMP280;61985;51.070;14.064;2022-12-08T09:32:39;97898.03;;;2.01
73685;BMP280;61985;51.070;14.064;2022-12-08T09:35:04;97895.41;;;2.05
73685;BMP280;61985;51.070;14.064;2022-12-08T09:37:30;97896.53;;;2.11
73685;BMP280;61985;51.070;14.064;2022-12-08T09:39:55;97904.88;;;2.16
73685;BMP280;61985;51.070;14.064;2022-12-08T09:42:51;97891.59;;;2.24
73685;BMP280;61985;51.070;14.064;2022-12-08T09:45:21;97897.25;;;2.33
73685;BMP280;61985;51.070;14.064;2022-12-08T09:48:04;97882.84;;;2.34
73685;BMP280;61985;51.070;14.064;2022-12-08T09:50:34;97886.63;;;2.36
73685;BMP280;61985;51.070;14.064;2022-12-08T09:53:05;97892.69;;;2.41
73685;BMP280;61985;51.070;14.064;2022-12-08T09:58:03;97878.25;;;2.45
73685;BMP280;61985;51.070;14.064;2022-12-08T10:00:33;97872.53;;;2.50
73685;BMP280;61985;51.070;14.064;2022-12-08T10:02:59;97871.41;;;2.59
73685;BMP280;61985;51.070;14.064;2022-12-08T10:05:29;97865.25;;;2.69
73685;BMP280;61985;51.070;14.064;2022-12-08T10:08:12;97865.22;;;2.83
73685;BMP280;61985;51.070;14.064;2022-12-08T10:10:42;97874.34;;;2.86
73685;BMP280;61985;51.070;14.064;2022-12-08T10:16:26;97858.28;;;3.00
73685;BMP280;61985;51.070;14.064;2022-12-08T10:18:32;97857.53;;;3.03
73685;BMP280;61985;51.070;14.064;2022-12-08T10:21:19;97861.31;;;3.06
73685;BMP280;61985;51.070;14.064;2022-12-08T10:23:52;97858.66;;;3.06
73685;BMP280;61985;51.070;14.064;2022-12-08T10:26:20;97859.00;;;3.15
73685;BMP280;61985;51.070;14.064;2022-12-08T10:28:46;97852.13;;;3.21
73685;BMP280;61985;51.070;14.064;2022-12-08T10:31:18;97849.78;;;3.31
73685;BMP280;61985;51.070;14.064;2022-12-08T10:33:46;97862.72;;;3.32
73685;BMP280;61985;51.070;14.064;2022-12-08T10:36:12;97845.22;;;3.35
73685;BMP280;61985;51.070;14.064;2022-12-08T10:38:38;97845.94;;;3.39
73685;BMP280;61985;51.070;14.064;2022-12-08T10:43:41;97851.56;;;3.52
73685;BMP280;61985;51.070;14.064;2022-12-08T10:46:19;97835.91;;;3.61
73685;BMP280;61985;51.070;14.064;2022-12-08T10:48:51;97836.59;;;3.65
73685;BMP280;61985;51.070;14.064;2022-12-08T10:51:29;97832.78;;;3.73
73685;BMP280;61985;51.070;14.064;2022-12-08T10:53:59;97838.84;;;3.74
73685;BMP280;61985;51.070;14.064;2022-12-08T10:56:27;97836.22;;;3.70
73685;BMP280;61985;51.070;14.064;2022-12-08T10:59:12;97836.56;;;3.72
73685;BMP280;61985;51.070;14.064;2022-12-08T11:01:39;97829.38;;;3.69
73685;BMP280;61985;51.070;14.064;2022-12-08T11:04:17;97827.88;;;3.64
73685;BMP280;61985;51.070;14.064;2022-12-08T11:06:44;97825.25;;;3.57
73685;BMP280;61985;51.070;14.064;2022-12-08T11:14:21;97824.78;;;3.70
73685;BMP280;61985;51.070;14.064;2022-12-08T11:16:50;97822.41;;;3.79
73685;BMP280;61985;51.070;14.064;2022-12-08T11:19:18;97819.34;;;3.84
73685;BMP280;61985;51.070;14.064;2022-12-08T11:21:44;97808.69;;;3.84
73685;BMP280;61985;51.070;14.064;2022-12-08T11:26:39;97809.47;;;3.81
73685;BMP280;61985;51.070;14.064;2022-12-08T11:29:12;97809.06;;;3.82
73685;BMP280;61985;51.070;14.064;2022-12-08T11:31:42;97819.34;;;3.84
73685;BMP280;61985;51.070;14.064;2022-12-08T11:34:18;97809.06;;;3.79
73685;BMP280;61985;51.070;14.064;2022-12-08T11:36:45;97803.00;;;3.78
73685;BMP280;61985;51.070;14.064;2022-12-08T11:39:11;97803.06;;;3.75
73685;BMP280;61985;51.070;14.064;2022-12-08T11:41:38;97801.53;;;3.74
73685;BMP280;61985;51.070;14.064;2022-12-08T11:44:20;97804.22;;;3.74
73685;BMP280;61985;51.070;14.064;2022-12-08T11:46:50;97795.38;;;3.80
73685;BMP280;61985;51.070;14.064;2022-12-08T11:49:34;97802.22;;;3.81
73685;BMP280;61985;51.070;14.064;2022-12-08T11:54:50;97793.91;;;3.76
73685;BMP280;61985;51.070;14.064;2022-12-08T11:57:19;97794.69;;;3.76
73685;BMP280;61985;51.070;14.064;2022-12-08T11:59:50;97795.44;;;3.77
73685;BMP280;61985;51.070;14.064;2022-12-08T12:02:21;97792.41;;;3.75
73685;BMP280;61985;51.070;14.064;2022-12-08T12:21:16;97782.44;;;3.79
73685;BMP280;61985;51.070;14.064;2022-12-08T12:23:52;97779.78;;;3.79
73685;BMP280;61985;51.070;14.064;2022-12-08T12:26:23;97769.94;;;3.76
73685;BMP280;61985;51.070;14.064;2022-12-08T12:28:57;97769.94;;;3.76
73685;BMP280;61985;51.070;14.064;2022-12-08T12:31:27;97765.38;;;3.76
73685;BMP280;61985;51.070;14.064;2022-12-08T12:34:04;97771.78;;;3.82
73685;BMP280;61985;51.070;14.064;2022-12-08T12:36:30;97761.47;;;3.85
73685;BMP280;61985;51.070;14.064;2022-12-08T12:38:57;97762.59;;;3.83
73685;BMP280;61985;51.070;14.064;2022-12-08T13:02:37;97740.22;;;3.77
73685;BMP280;61985;51.070;14.064;2022-12-08T13:05:09;97739.94;;;3.68
73685;BMP280;61985;51.070;14.064;2022-12-08T13:07:48;97740.00;;;3.57
73685;BMP280;61985;51.070;14.064;2022-12-08T13:12:41;97743.97;;;3.42
73685;BMP280;61985;51.070;14.064;2022-12-08T13:15:17;97733.72;;;3.37
73685;BMP280;61985;51.070;14.064;2022-12-08T13:17:46;97735.66;;;3.33
73685;BMP280;61985;51.070;14.064;2022-12-08T13:20:19;97734.94;;;3.28
73685;BMP280;61985;51.070;14.064;2022-12-08T13:28:18;97728.38;;;3.44
73685;BMP280;61985;51.070;14.064;2022-12-08T13:33:17;97733.28;;;3.45
73685;BMP280;61985;51.070;14.064;2022-12-08T13:35:52;97732.53;;;3.45
73685;BMP280;61985;51.070;14.064;2022-12-08T13:38:20;97723.44;;;3.42
73685;BMP280;61985;51.070;14.064;2022-12-08T13:40:46;97733.31;;;3.42
73685;BMP280;61985;51.070;14.064;2022-12-08T13:45:55;97734.47;;;3.41
73685;BMP280;61985;51.070;14.064;2022-12-08T13:48:27;97741.69;;;3.44
73685;BMP280;61985;51.070;14.064;2022-12-08T13:51:16;97739.84;;;3.34
73685;BMP280;61985;51.070;14.064;2022-12-08T13:53:48;97745.94;;;3.31
73685;BMP280;61985;51.070;14.064;2022-12-08T13:56:18;97746.78;;;3.24
73685;BMP280;61985;51.070;14.064;2022-12-08T13:58:43;97743.75;;;3.22
73685;BMP280;61985;51.070;14.064;2022-12-08T14:01:22;97743.41;;;3.16
73685;BMP280;61985;51.070;14.064;2022-12-08T14:03:56;97741.09;;;3.18
73685;BMP280;61985;51.070;14.064;2022-12-08T14:06:46;97743.41;;;3.13
73685;BMP280;61985;51.070;14.064;2022-12-08T14:09:18;97748.03;;;3.08
73685;BMP280;61985;51.070;14.064;2022-12-08T14:12:16;97736.59;;;3.08
73685;BMP280;61985;51.070;14.064;2022-12-08T14:14:44;97736.97;;;3.10
73685;BMP280;61985;51.070;14.064;2022-12-08T14:17:13;97738.13;;;3.09
73685;BMP280;61985;51.070;14.064;2022-12-08T14:19:41;97735.09;;;3.07
73685;BMP280;61985;51.070;14.064;2022-12-08T14:24:32;97732.91;;;2.95
73685;BMP280;61985;51.070;14.064;2022-12-08T14:27:00;97735.25;;;2.85
73685;BMP280;61985;51.070;14.064;2022-12-08T14:32:03;97737.97;;;2.75
73685;BMP280;61985;51.070;14.064;2022-12-08T14:34:28;97733.00;;;2.77
73685;BMP280;61985;51.070;14.064;2022-12-08T14:36:54;97733.78;;;2.73
73685;BMP280;61985;51.070;14.064;2022-12-08T14:39:19;97730.00;;;2.67
73685;BMP280;61985;51.070;14.064;2022-12-08T14:41:59;97729.69;;;2.62
73685;BMP280;61985;51.070;14.064;2022-12-08T14:44:29;97727.06;;;2.54
73685;BMP280;61985;51.070;14.064;2022-12-08T14:47:07;97728.63;;;2.45
73685;BMP280;61985;51.070;14.064;2022-12-08T14:49:37;97733.94;;;2.45
73685;BMP280;61985;51.070;14.064;2022-12-08T14:52:08;97738.50;;;2.37
73685;BMP280;61985;51.070;14.064;2022-12-08T14:54:35;97735.53;;;2.28
73685;BMP280;61985;51.070;14.064;2022-12-08T14:57:00;97737.84;;;2.19
73685;BMP280;61985;51.070;14.064;2022-12-08T14:59:28;97736.31;;;2.10
73685;BMP280;61985;51.070;14.064;2022-12-08T15:07:26;97741.66;;;1.96
73685;BMP280;61985;51.070;14.064;2022-12-08T15:12:39;97732.56;;;1.97
73685;BMP280;61985;51.070;14.064;2022-12-08T15:17:40;97743.94;;;1.97
73685;BMP280;61985;51.070;14.064;2022-12-08T15:22:53;97743.19;;;1.90
73685;BMP280;61985;51.070;14.064;2022-12-08T15:25:19;97744.38;;;1.85
73685;BMP280;61985;51.070;14.064;2022-12-08T15:27:45;97747.03;;;1.82
73685;BMP280;61985;51.070;14.064;2022-12-08T15:30:15;97743.59;;;1.77
73685;BMP280;61985;51.070;14.064;2022-12-08T15:32:41;97747.41;;;1.76
73685;BMP280;61985;51.070;14.064;2022-12-08T15:35:07;97745.50;;;1.77
73685;BMP280;61985;51.070;14.064;2022-12-08T15:37:32;97750.81;;;1.73
73685;BMP280;61985;51.070;14.064;2022-12-08T15:39:58;97749.66;;;1.67
73685;BMP280;61985;51.070;14.064;2022-12-08T15:42:23;97755.38;;;1.66
73685;BMP280;61985;51.070;14.064;2022-12-08T15:44:48;97758.41;;;1.71
73685;BMP280;61985;51.070;14.064;2022-12-08T15:47:19;97761.06;;;1.78
73685;BMP280;61985;51.070;14.064;2022-12-08T15:49:46;97760.28;;;1.78
73685;BMP280;61985;51.070;14.064;2022-12-08T15:52:20;97758.41;;;1.78
73685;BMP280;61985;51.070;14.064;2022-12-08T15:54:45;97766.00;;;1.84
73685;BMP280;61985;51.070;14.064;2022-12-08T15:59:45;97761.03;;;1.89
73685;BMP280;61985;51.070;14.064;2022-12-08T16:02:12;97757.22;;;1.90
73685;BMP280;61985;51.070;14.064;2022-12-08T16:04:38;97755.34;;;1.91
73685;BMP280;61985;51.070;14.064;2022-12-08T16:07:04;97738.66;;;1.87
73685;BMP280;61985;51.070;14.064;2022-12-08T16:09:36;97765.97;;;1.91
73685;BMP280;61985;51.070;14.064;2022-12-08T16:12:04;97757.59;;;1.96
73685;BMP280;61985;51.070;14.064;2022-12-08T16:14:49;97765.19;;;2.05
73685;BMP280;61985;51.070;14.064;2022-12-08T16:17:15;97756.06;;;2.06